createdAt,value
2018-03-25T00:00:04.432Z,6.99
2018-03-25T00:01:04.372Z,6.99
2018-03-25T00:02:04.352Z,7.06
2018-03-25T00:03:04.325Z,6.91
2018-03-25T00:04:04.313Z,6.97
2018-03-25T00:05:04.292Z,6.99
2018-03-25T00:06:04.263Z,6.89
2018-03-25T00:07:04.252Z,6.91
2018-03-25T00:08:04.228Z,6.93
2018-03-25T00:09:04.213Z,6.81
2018-03-25T00:10:04.193Z,6.82
2018-03-25T00:11:04.164Z,6.81
2018-03-25T00:12:04.145Z,6.74
2018-03-25T00:13:04.132Z,6.68
2018-03-25T00:14:04.109Z,6.81
2018-03-25T00:15:04.087Z,6.79
2018-03-25T00:16:04.070Z,6.81
2018-03-25T00:17:04.064Z,6.83
2018-03-25T00:18:04.032Z,6.86
2018-03-25T00:19:04.011Z,6.91
2018-03-25T00:20:03.986Z,6.86
2018-03-25T00:21:03.978Z,6.85
2018-03-25T00:22:03.944Z,6.93
2018-03-25T00:23:03.933Z,6.89
2018-03-25T00:24:03.908Z,6.86
2018-03-25T00:25:03.894Z,6.89
2018-03-25T00:26:03.870Z,6.86
2018-03-25T00:27:03.850Z,6.88
2018-03-25T00:28:03.831Z,6.93
2018-03-25T00:29:03.809Z,6.88
2018-03-25T00:30:03.793Z,6.88
2018-03-25T00:31:03.768Z,6.93
2018-03-25T00:32:03.751Z,6.91
2018-03-25T00:33:03.736Z,6.88
2018-03-25T00:34:03.710Z,6.82
2018-03-25T00:35:03.693Z,6.82
2018-03-25T00:36:03.671Z,6.81
2018-03-25T00:37:03.652Z,6.70
2018-03-25T00:38:03.637Z,6.67
2018-03-25T00:39:03.612Z,6.67
2018-03-25T00:40:03.592Z,6.64
2018-03-25T00:41:03.569Z,6.65
2018-03-25T00:42:03.551Z,6.60
2018-03-25T00:43:03.531Z,6.63
2018-03-25T00:44:03.515Z,6.63
2018-03-25T00:45:03.493Z,6.57
2018-03-25T00:46:03.469Z,6.67
2018-03-25T00:47:03.450Z,6.65
2018-03-25T00:48:03.438Z,6.61
2018-03-25T00:49:03.422Z,6.63
2018-03-25T00:50:03.398Z,6.61
2018-03-25T00:51:03.373Z,6.74
2018-03-25T00:52:03.410Z,6.67
2018-03-25T00:53:03.337Z,6.68
2018-03-25T00:54:03.315Z,6.67
2018-03-25T00:55:03.296Z,6.64
2018-03-25T00:56:03.274Z,6.65
2018-03-25T00:57:03.266Z,6.55
2018-03-25T00:58:03.284Z,6.56
2018-03-25T00:59:03.213Z,6.37
2018-03-25T01:00:03.247Z,6.37
2018-03-25T01:01:03.173Z,6.25
2018-03-25T01:02:03.160Z,6.28
2018-03-25T01:03:03.134Z,6.30
2018-03-25T01:04:03.220Z,6.31
2018-03-25T01:05:03.093Z,6.32
2018-03-25T01:06:03.082Z,6.42
2018-03-25T01:07:03.055Z,6.47
2018-03-25T01:08:03.135Z,6.46
2018-03-25T01:09:03.017Z,6.53
2018-03-25T01:10:03.103Z,6.55
2018-03-25T01:11:02.980Z,6.63
2018-03-25T01:12:03.011Z,6.57
2018-03-25T01:13:02.936Z,6.57
2018-03-25T01:14:02.962Z,6.74
2018-03-25T01:15:02.896Z,6.71
2018-03-25T01:16:03.028Z,6.61
2018-03-25T01:17:02.860Z,6.61
2018-03-25T01:18:02.900Z,6.55
2018-03-25T01:19:02.813Z,6.40
2018-03-25T01:20:02.846Z,6.25
2018-03-25T01:21:02.775Z,6.03
2018-03-25T01:22:02.767Z,5.97
2018-03-25T01:23:02.740Z,6.06
2018-03-25T01:24:02.716Z,6.24
2018-03-25T01:25:02.710Z,6.25
2018-03-25T01:26:02.678Z,6.30
2018-03-25T01:27:02.654Z,6.46
2018-03-25T01:28:02.640Z,6.45
2018-03-25T01:29:02.623Z,6.46
2018-03-25T01:30:02.600Z,6.53
2018-03-25T01:31:02.581Z,6.38
2018-03-25T01:32:02.557Z,6.45
2018-03-25T01:33:02.542Z,6.45
2018-03-25T01:34:02.520Z,6.38
2018-03-25T01:35:02.507Z,6.37
2018-03-25T01:36:02.487Z,6.43
2018-03-25T01:37:02.454Z,6.34
2018-03-25T01:38:02.440Z,6.37
2018-03-25T01:39:02.423Z,6.38
2018-03-25T01:40:02.397Z,6.31
2018-03-25T01:41:02.381Z,6.15
2018-03-25T01:42:02.365Z,6.06
2018-03-25T01:43:02.337Z,5.79
2018-03-25T01:44:02.322Z,5.82
2018-03-25T01:45:02.296Z,5.90
2018-03-25T01:46:02.287Z,5.95
2018-03-25T01:47:02.261Z,5.87
2018-03-25T01:48:02.231Z,6.05
2018-03-25T01:49:02.208Z,6.05
2018-03-25T01:50:02.190Z,6.13
2018-03-25T01:51:02.170Z,6.15
2018-03-25T01:52:02.152Z,6.21
2018-03-25T01:53:02.141Z,6.27
2018-03-25T01:54:02.111Z,6.24
2018-03-25T01:55:02.088Z,6.18
2018-03-25T01:56:02.071Z,6.21
2018-03-25T01:57:02.050Z,6.15
2018-03-25T01:58:02.031Z,6.09
2018-03-25T01:59:02.012Z,6.16
2018-03-25T02:00:01.995Z,6.15
2018-03-25T02:01:01.970Z,6.18
2018-03-25T02:02:01.951Z,6.18
2018-03-25T02:03:01.928Z,6.19
2018-03-25T02:04:01.911Z,6.21
2018-03-25T02:05:01.893Z,6.21
2018-03-25T02:06:01.865Z,6.21
2018-03-25T02:07:01.847Z,6.24
2018-03-25T02:08:01.826Z,6.15
2018-03-25T02:09:01.812Z,6.16
2018-03-25T02:10:01.862Z,6.11
2018-03-25T02:11:01.768Z,6.16
2018-03-25T02:12:01.744Z,6.13
2018-03-25T02:13:01.725Z,6.15
2018-03-25T02:14:01.806Z,6.18
2018-03-25T02:15:01.683Z,6.03
2018-03-25T02:16:01.763Z,6.05
2018-03-25T02:17:01.644Z,5.95
2018-03-25T02:18:01.797Z,6.03
2018-03-25T02:19:01.610Z,6.03
2018-03-25T02:20:01.590Z,6.06
2018-03-25T02:21:01.565Z,5.93
2018-03-25T02:22:01.543Z,5.93
2018-03-25T02:23:01.521Z,6.05
2018-03-25T02:24:01.510Z,6.03
2018-03-25T02:25:01.480Z,6.00
2018-03-25T02:26:01.498Z,5.90
2018-03-25T02:27:01.439Z,5.90
2018-03-25T02:28:01.419Z,5.97
2018-03-25T02:29:01.401Z,6.02
2018-03-25T02:30:01.386Z,5.95
2018-03-25T02:31:01.362Z,6.03
2018-03-25T02:32:01.353Z,6.09
2018-03-25T02:33:01.321Z,5.90
2018-03-25T02:34:01.406Z,5.98
2018-03-25T02:35:01.279Z,6.00
2018-03-25T02:36:01.270Z,5.95
2018-03-25T02:37:01.242Z,5.88
2018-03-25T02:38:01.222Z,5.91
2018-03-25T02:39:01.200Z,5.93
2018-03-25T02:40:01.280Z,5.88
2018-03-25T02:41:01.155Z,5.90
2018-03-25T02:42:01.138Z,5.95
2018-03-25T02:43:01.114Z,5.90
2018-03-25T02:44:01.097Z,5.90
2018-03-25T02:45:01.078Z,5.88
2018-03-25T02:46:01.077Z,5.95
2018-03-25T02:47:01.031Z,5.91
2018-03-25T02:48:01.013Z,5.97
2018-03-25T02:49:00.991Z,5.88
2018-03-25T02:50:01.028Z,5.84
2018-03-25T02:51:00.950Z,5.79
2018-03-25T02:52:00.930Z,5.82
2018-03-25T02:53:00.921Z,5.84
2018-03-25T02:54:00.896Z,5.75
2018-03-25T02:55:00.869Z,5.76
2018-03-25T02:56:00.848Z,5.76
2018-03-25T02:57:00.825Z,5.65
2018-03-25T02:58:00.812Z,5.70
2018-03-25T02:59:00.787Z,5.76
2018-03-25T03:00:00.769Z,5.72
2018-03-25T03:01:00.742Z,5.70
2018-03-25T03:02:00.722Z,5.66
2018-03-25T03:03:00.706Z,5.62
2018-03-25T03:04:00.682Z,5.61
2018-03-25T03:05:00.658Z,5.65
2018-03-25T03:06:00.639Z,5.67
2018-03-25T03:07:00.619Z,5.73
2018-03-25T03:08:00.613Z,5.65
2018-03-25T03:09:00.579Z,5.72
2018-03-25T03:10:00.561Z,5.76
2018-03-25T03:11:00.540Z,5.76
2018-03-25T03:12:00.516Z,5.75
2018-03-25T03:13:00.501Z,5.67
2018-03-25T03:14:00.476Z,5.76
2018-03-25T03:15:00.457Z,5.73
2018-03-25T03:16:00.438Z,5.73
2018-03-25T03:17:00.414Z,5.84
2018-03-25T03:18:00.399Z,5.80
2018-03-25T03:19:00.378Z,5.72
2018-03-25T03:20:00.351Z,5.84
2018-03-25T03:21:00.332Z,5.75
2018-03-25T03:22:00.310Z,5.84
2018-03-25T03:23:00.290Z,5.87
2018-03-25T03:24:00.272Z,5.87
2018-03-25T03:25:00.251Z,5.88
2018-03-25T03:26:00.235Z,5.87
2018-03-25T03:27:00.210Z,5.85
2018-03-25T03:28:00.191Z,5.84
2018-03-25T03:29:00.174Z,5.91
2018-03-25T03:30:00.149Z,5.84
2018-03-25T03:31:00.139Z,5.90
2018-03-25T03:32:00.109Z,5.90
2018-03-25T03:33:00.090Z,5.88
2018-03-25T03:34:00.071Z,5.85
2018-03-25T03:35:00.045Z,5.77
2018-03-25T03:36:00.032Z,5.79
2018-03-25T03:37:00.005Z,5.75
2018-03-25T03:37:59.998Z,5.87
2018-03-25T03:38:59.964Z,5.84
2018-03-25T03:39:59.950Z,5.77
2018-03-25T03:40:59.922Z,5.79
2018-03-25T03:41:59.900Z,5.79
2018-03-25T03:42:59.881Z,5.75
2018-03-25T03:43:59.884Z,5.88
2018-03-25T03:44:59.838Z,5.82
2018-03-25T03:45:59.819Z,5.80
2018-03-25T03:46:59.800Z,5.76
2018-03-25T03:47:59.776Z,5.91
2018-03-25T03:48:59.759Z,6.00
2018-03-25T03:49:59.747Z,6.02
2018-03-25T03:50:59.720Z,6.03
2018-03-25T03:51:59.696Z,5.97
2018-03-25T03:52:59.681Z,5.98
2018-03-25T03:53:59.659Z,5.95
2018-03-25T03:54:59.641Z,6.03
2018-03-25T03:55:59.620Z,6.00
2018-03-25T03:56:59.595Z,5.84
2018-03-25T03:57:59.581Z,5.75
2018-03-25T03:58:59.550Z,5.75
2018-03-25T03:59:59.535Z,5.66
2018-03-25T04:00:59.521Z,5.61
2018-03-25T04:01:59.493Z,5.66
2018-03-25T04:02:59.471Z,5.55
2018-03-25T04:03:59.452Z,5.48
2018-03-25T04:04:59.431Z,5.51
2018-03-25T04:05:59.409Z,5.62
2018-03-25T04:06:59.395Z,5.65
2018-03-25T04:07:59.371Z,5.69
2018-03-25T04:08:59.360Z,5.73
2018-03-25T04:09:59.334Z,5.79
2018-03-25T04:10:59.308Z,5.91
2018-03-25T04:11:59.286Z,5.87
2018-03-25T04:12:59.269Z,5.90
2018-03-25T04:13:59.250Z,5.91
2018-03-25T04:14:59.230Z,5.75
2018-03-25T04:15:59.210Z,5.58
2018-03-25T04:16:59.181Z,5.47
2018-03-25T04:17:59.159Z,5.44
2018-03-25T04:18:59.139Z,5.55
2018-03-25T04:19:59.123Z,5.51
2018-03-25T04:20:59.104Z,5.61
2018-03-25T04:21:59.089Z,5.70
2018-03-25T04:22:59.059Z,5.66
2018-03-25T04:23:59.038Z,5.61
2018-03-25T04:24:59.020Z,5.65
2018-03-25T04:25:59.000Z,5.57
2018-03-25T04:26:58.976Z,5.47
2018-03-25T04:27:58.966Z,5.44
2018-03-25T04:28:58.939Z,5.59
2018-03-25T04:29:58.920Z,5.62
2018-03-25T04:30:58.903Z,5.66
2018-03-25T04:31:58.882Z,5.79
2018-03-25T04:32:58.854Z,5.87
2018-03-25T04:33:58.841Z,5.79
2018-03-25T04:34:58.819Z,5.82
2018-03-25T04:35:58.791Z,5.82
2018-03-25T04:36:58.771Z,5.87
2018-03-25T04:37:58.751Z,5.79
2018-03-25T04:38:58.730Z,5.75
2018-03-25T04:39:58.708Z,5.76
2018-03-25T04:40:58.690Z,5.72
2018-03-25T04:41:58.671Z,5.85
2018-03-25T04:42:58.649Z,5.82
2018-03-25T04:43:58.627Z,5.77
2018-03-25T04:44:58.609Z,5.85
2018-03-25T04:45:58.594Z,5.77
2018-03-25T04:46:58.567Z,5.76
2018-03-25T04:47:58.546Z,5.91
2018-03-25T04:48:58.524Z,5.91
2018-03-25T04:49:58.503Z,5.94
2018-03-25T04:50:58.483Z,5.97
2018-03-25T04:51:58.460Z,5.98
2018-03-25T04:52:58.449Z,6.05
2018-03-25T04:53:58.422Z,5.88
2018-03-25T04:54:58.398Z,5.72
2018-03-25T04:55:58.390Z,5.58
2018-03-25T04:56:58.361Z,5.40
2018-03-25T04:57:58.336Z,5.21
2018-03-25T04:58:58.381Z,5.22
2018-03-25T04:59:58.314Z,5.27
2018-03-25T05:00:58.280Z,5.40
2018-03-25T05:01:58.259Z,5.54
2018-03-25T05:02:58.240Z,5.50
2018-03-25T05:03:58.258Z,5.65
2018-03-25T05:04:58.199Z,5.67
2018-03-25T05:05:58.176Z,5.76
2018-03-25T05:06:58.151Z,5.77
2018-03-25T05:07:58.140Z,5.91
2018-03-25T05:08:58.118Z,5.90
2018-03-25T05:09:58.088Z,6.03
2018-03-25T05:10:58.072Z,6.02
2018-03-25T05:11:58.049Z,6.03
2018-03-25T05:12:58.030Z,6.05
2018-03-25T05:13:58.010Z,6.16
2018-03-25T05:14:57.986Z,6.09
2018-03-25T05:15:57.971Z,6.15
2018-03-25T05:16:57.946Z,6.18
2018-03-25T05:17:57.929Z,6.18
2018-03-25T05:18:57.910Z,6.21
2018-03-25T05:19:57.885Z,6.24
2018-03-25T05:20:57.872Z,6.18
2018-03-25T05:21:57.850Z,6.18
2018-03-25T05:22:57.830Z,6.21
2018-03-25T05:23:57.808Z,6.16
2018-03-25T05:24:57.785Z,6.18
2018-03-25T05:25:57.759Z,6.12
2018-03-25T05:26:57.740Z,6.09
2018-03-25T05:27:57.764Z,6.15
2018-03-25T05:28:57.700Z,6.21
2018-03-25T05:29:57.683Z,6.11
2018-03-25T05:30:57.660Z,6.27
2018-03-25T05:31:57.638Z,6.13
2018-03-25T05:32:57.621Z,5.94
2018-03-25T05:33:57.601Z,6.00
2018-03-25T05:34:57.590Z,5.93
2018-03-25T05:35:57.561Z,5.98
2018-03-25T05:36:57.553Z,6.06
2018-03-25T05:37:57.514Z,6.05
2018-03-25T05:38:57.548Z,6.12
2018-03-25T05:39:57.470Z,6.09
2018-03-25T05:40:57.450Z,6.18
2018-03-25T05:41:57.431Z,6.24
2018-03-25T05:42:57.411Z,6.19
2018-03-25T05:43:57.390Z,6.15
2018-03-25T05:44:57.370Z,6.16
2018-03-25T05:45:57.348Z,6.24
2018-03-25T05:46:57.326Z,6.25
2018-03-25T05:47:57.313Z,6.21
2018-03-25T05:48:57.289Z,6.16
2018-03-25T05:49:57.269Z,5.94
2018-03-25T05:50:57.251Z,5.94
2018-03-25T05:51:57.230Z,5.94
2018-03-25T05:52:57.206Z,5.95
2018-03-25T05:53:57.231Z,5.98
2018-03-25T05:54:57.171Z,6.02
2018-03-25T05:55:57.151Z,6.13
2018-03-25T05:56:57.128Z,6.13
2018-03-25T05:57:57.109Z,6.18
2018-03-25T05:58:57.085Z,6.21
2018-03-25T05:59:57.065Z,6.18
2018-03-25T06:00:57.042Z,6.21
2018-03-25T06:01:57.056Z,6.27
2018-03-25T06:02:57.000Z,6.18
2018-03-25T06:03:56.988Z,6.13
2018-03-25T06:04:56.966Z,6.16
2018-03-25T06:05:56.942Z,6.16
2018-03-25T06:06:56.919Z,6.24
2018-03-25T06:07:56.899Z,6.31
2018-03-25T06:08:56.880Z,6.32
2018-03-25T06:09:56.860Z,6.37
2018-03-25T06:10:56.856Z,6.43
2018-03-25T06:11:56.818Z,6.42
2018-03-25T06:12:56.800Z,6.34
2018-03-25T06:13:56.779Z,6.42
2018-03-25T06:14:56.808Z,6.52
2018-03-25T06:15:56.853Z,6.38
2018-03-25T06:16:56.722Z,6.38
2018-03-25T06:17:56.700Z,6.52
2018-03-25T06:18:56.727Z,6.38
2018-03-25T06:19:56.656Z,6.60
2018-03-25T06:20:56.637Z,6.56
2018-03-25T06:21:56.619Z,6.56
2018-03-25T06:22:56.645Z,6.46
2018-03-25T06:23:56.579Z,6.46
2018-03-25T06:24:56.557Z,6.38
2018-03-25T06:25:56.540Z,6.38
2018-03-25T06:26:56.566Z,6.40
2018-03-25T06:27:56.499Z,6.49
2018-03-25T06:28:56.486Z,6.60
2018-03-25T06:29:56.452Z,6.55
2018-03-25T06:30:56.435Z,6.46
2018-03-25T06:31:56.420Z,6.25
2018-03-25T06:32:56.397Z,6.21
2018-03-25T06:33:56.370Z,6.08
2018-03-25T06:34:56.359Z,6.06
2018-03-25T06:35:56.333Z,6.00
2018-03-25T06:36:56.314Z,6.02
2018-03-25T06:37:56.293Z,6.15
2018-03-25T06:38:56.275Z,6.15
2018-03-25T06:39:56.259Z,6.25
2018-03-25T06:40:56.240Z,6.35
2018-03-25T06:41:56.221Z,6.32
2018-03-25T06:42:56.195Z,6.46
2018-03-25T06:43:56.176Z,6.42
2018-03-25T06:44:56.150Z,6.55
2018-03-25T06:45:56.140Z,6.55
2018-03-25T06:46:56.111Z,6.57
2018-03-25T06:47:56.099Z,6.56
2018-03-25T06:48:56.075Z,6.67
2018-03-25T06:49:56.052Z,6.68
2018-03-25T06:50:56.033Z,6.74
2018-03-25T06:51:56.009Z,6.82
2018-03-25T06:52:55.993Z,6.82
2018-03-25T06:53:55.971Z,6.86
2018-03-25T06:54:55.954Z,6.88
2018-03-25T06:55:55.930Z,6.96
2018-03-25T06:56:55.911Z,7.04
2018-03-25T06:57:55.890Z,7.01
2018-03-25T06:58:55.872Z,7.03
2018-03-25T06:59:55.848Z,6.99
2018-03-25T07:00:55.834Z,7.01
2018-03-25T07:01:55.863Z,7.01
2018-03-25T07:02:55.789Z,7.10
2018-03-25T07:03:55.774Z,7.13
2018-03-25T07:04:55.750Z,7.16
2018-03-25T07:05:55.730Z,7.22
2018-03-25T07:06:55.709Z,7.34
2018-03-25T07:07:55.690Z,7.33
2018-03-25T07:08:55.669Z,7.26
2018-03-25T07:09:55.649Z,7.29
2018-03-25T07:10:55.629Z,7.28
2018-03-25T07:11:55.612Z,7.34
2018-03-25T07:12:55.589Z,7.25
2018-03-25T07:13:55.571Z,7.16
2018-03-25T07:14:55.602Z,6.99
2018-03-25T07:15:55.531Z,6.86
2018-03-25T07:16:55.516Z,6.92
2018-03-25T07:17:55.492Z,6.89
2018-03-25T07:18:55.530Z,6.89
2018-03-25T07:19:55.454Z,6.81
2018-03-25T07:20:55.489Z,6.88
2018-03-25T07:21:55.412Z,6.91
2018-03-25T07:22:55.517Z,7.01
2018-03-25T07:23:55.380Z,7.03
2018-03-25T07:24:55.461Z,7.15
2018-03-25T07:25:55.331Z,7.11
2018-03-25T07:26:55.364Z,7.33
2018-03-25T07:27:55.293Z,7.36
2018-03-25T07:28:55.280Z,7.40
2018-03-25T07:29:55.262Z,7.34
2018-03-25T07:30:55.338Z,7.39
2018-03-25T07:31:55.222Z,7.43
2018-03-25T07:32:55.301Z,7.46
2018-03-25T07:33:55.183Z,7.42
2018-03-25T07:34:55.159Z,7.28
2018-03-25T07:35:55.137Z,7.31
2018-03-25T07:36:55.154Z,7.40
2018-03-25T07:37:55.102Z,7.25
2018-03-25T07:38:55.158Z,7.10
2018-03-25T07:39:55.063Z,7.07
2018-03-25T07:40:55.042Z,7.06
2018-03-25T07:41:55.018Z,7.03
2018-03-25T07:42:55.069Z,7.01
2018-03-25T07:43:54.980Z,7.07
2018-03-25T07:44:55.013Z,7.22
2018-03-25T07:45:54.946Z,7.34
2018-03-25T07:46:54.981Z,7.10
2018-03-25T07:47:54.909Z,7.22
2018-03-25T07:48:54.883Z,7.21
2018-03-25T07:49:54.950Z,7.25
2018-03-25T07:50:54.849Z,7.25
2018-03-25T07:51:54.836Z,7.28
2018-03-25T07:52:54.820Z,7.33
2018-03-25T07:53:54.802Z,7.40
2018-03-25T07:54:54.770Z,7.46
2018-03-25T07:55:54.759Z,7.60
2018-03-25T07:56:54.731Z,7.74
2018-03-25T07:57:54.715Z,7.76
2018-03-25T07:58:54.699Z,7.69
2018-03-25T07:59:54.685Z,7.80
2018-03-25T08:00:54.658Z,7.73
2018-03-25T08:01:54.640Z,7.81
2018-03-25T08:02:54.619Z,7.74
2018-03-25T08:03:54.662Z,7.62
2018-03-25T08:04:54.582Z,7.69
2018-03-25T08:05:54.560Z,7.74
2018-03-25T08:06:54.539Z,7.80
2018-03-25T08:07:54.525Z,7.91
2018-03-25T08:08:54.512Z,7.94
2018-03-25T08:09:54.480Z,7.99
2018-03-25T08:10:54.468Z,8.05
2018-03-25T08:11:54.449Z,8.10
2018-03-25T08:12:54.425Z,8.17
2018-03-25T08:13:54.410Z,8.20
2018-03-25T08:14:54.392Z,8.16
2018-03-25T08:15:54.371Z,8.28
2018-03-25T08:16:54.355Z,8.32
2018-03-25T08:17:54.339Z,8.38
2018-03-25T08:18:54.309Z,8.38
2018-03-25T08:19:54.290Z,8.46
2018-03-25T08:20:54.280Z,8.49
2018-03-25T08:21:54.253Z,8.57
2018-03-25T08:22:54.245Z,8.57
2018-03-25T08:23:54.219Z,8.49
2018-03-25T08:24:54.198Z,8.20
2018-03-25T08:25:54.184Z,8.14
2018-03-25T08:26:54.168Z,8.21
2018-03-25T08:27:54.174Z,8.34
2018-03-25T08:28:54.128Z,8.49
2018-03-25T08:29:54.111Z,8.55
2018-03-25T08:30:54.090Z,8.46
2018-03-25T08:31:54.071Z,8.62
2018-03-25T08:32:54.049Z,8.67
2018-03-25T08:33:54.036Z,8.71
2018-03-25T08:34:54.020Z,8.74
2018-03-25T08:35:53.997Z,8.77
2018-03-25T08:36:53.990Z,8.85
2018-03-25T08:37:53.956Z,8.98
2018-03-25T08:38:53.940Z,8.98
2018-03-25T08:39:53.921Z,8.95
2018-03-25T08:40:53.907Z,8.85
2018-03-25T08:41:53.879Z,8.80
2018-03-25T08:42:53.914Z,8.62
2018-03-25T08:43:53.846Z,8.65
2018-03-25T08:44:53.828Z,8.65
2018-03-25T08:45:53.809Z,8.78
2018-03-25T08:46:53.813Z,8.89
2018-03-25T08:47:53.782Z,8.99
2018-03-25T08:48:53.761Z,9.04
2018-03-25T08:49:53.731Z,9.12
2018-03-25T08:50:53.776Z,9.12
2018-03-25T08:51:53.695Z,9.27
2018-03-25T08:52:53.725Z,9.24
2018-03-25T08:53:53.660Z,9.23
2018-03-25T08:54:53.694Z,9.29
2018-03-25T08:55:53.624Z,9.32
2018-03-25T08:56:53.641Z,9.34
2018-03-25T08:57:53.589Z,9.45
2018-03-25T08:58:53.607Z,9.36
2018-03-25T08:59:53.559Z,9.27
2018-03-25T09:00:53.530Z,9.33
2018-03-25T09:01:53.519Z,9.33
2018-03-25T09:02:53.546Z,9.29
2018-03-25T09:03:53.483Z,9.44
2018-03-25T09:04:53.464Z,9.44
2018-03-25T09:05:53.444Z,9.59
2018-03-25T09:06:53.429Z,9.55
2018-03-25T09:07:53.402Z,9.60
2018-03-25T09:08:53.390Z,9.69
2018-03-25T09:09:53.370Z,9.83
2018-03-25T09:10:53.352Z,9.84
2018-03-25T09:11:53.333Z,9.93
2018-03-25T09:12:53.321Z,9.98
2018-03-25T09:13:53.301Z,10.08
2018-03-25T09:14:53.280Z,10.14
2018-03-25T09:15:53.260Z,10.23
2018-03-25T09:16:53.246Z,10.17
2018-03-25T09:17:53.230Z,10.24
2018-03-25T09:18:53.209Z,10.20
2018-03-25T09:19:53.188Z,10.23
2018-03-25T09:20:53.171Z,10.36
2018-03-25T09:21:53.150Z,10.21
2018-03-25T09:22:53.143Z,10.24
2018-03-25T09:23:53.121Z,10.27
2018-03-25T09:24:53.102Z,10.21
2018-03-25T09:25:53.089Z,10.02
2018-03-25T09:26:53.072Z,9.99
2018-03-25T09:27:53.054Z,10.03
2018-03-25T09:28:53.040Z,10.02
2018-03-25T09:29:53.022Z,10.06
2018-03-25T09:30:52.992Z,10.10
2018-03-25T09:31:52.990Z,10.27
2018-03-25T09:32:52.961Z,10.27
2018-03-25T09:33:52.949Z,10.30
2018-03-25T09:34:52.931Z,10.41
2018-03-25T09:35:52.913Z,10.54
2018-03-25T09:36:52.893Z,10.65
2018-03-25T09:37:52.886Z,10.75
2018-03-25T09:38:52.858Z,10.73
2018-03-25T09:39:52.841Z,10.85
2018-03-25T09:40:52.822Z,11.00
2018-03-25T09:41:52.808Z,10.93
2018-03-25T09:42:52.790Z,10.87
2018-03-25T09:43:52.768Z,10.87
2018-03-25T09:44:52.761Z,10.94
2018-03-25T09:45:52.774Z,10.85
2018-03-25T09:46:52.722Z,10.90
2018-03-25T09:47:52.703Z,11.01
2018-03-25T09:48:52.695Z,11.04
2018-03-25T09:49:52.670Z,11.09
2018-03-25T09:50:52.647Z,11.09
2018-03-25T09:51:52.630Z,11.09
2018-03-25T09:52:52.620Z,11.00
2018-03-25T09:53:52.598Z,10.95
2018-03-25T09:54:52.580Z,10.95
2018-03-25T09:55:52.621Z,10.78
2018-03-25T09:56:52.560Z,10.78
2018-03-25T09:57:52.529Z,10.86
2018-03-25T09:58:52.517Z,10.87
2018-03-25T09:59:52.501Z,10.95
2018-03-25T10:00:52.484Z,10.95
2018-03-25T10:01:52.470Z,11.16
2018-03-25T10:02:52.453Z,11.23
2018-03-25T10:03:52.501Z,11.22
2018-03-25T10:04:52.456Z,11.34
2018-03-25T10:05:52.400Z,11.31
2018-03-25T10:06:52.380Z,11.23
2018-03-25T10:07:52.360Z,11.04
2018-03-25T10:08:52.351Z,11.15
2018-03-25T10:09:52.332Z,11.20
2018-03-25T10:10:52.321Z,11.22
2018-03-25T10:11:52.292Z,11.33
2018-03-25T10:12:52.282Z,11.22
2018-03-25T10:13:52.259Z,11.30
2018-03-25T10:14:52.249Z,11.23
2018-03-25T10:15:52.229Z,11.48
2018-03-25T10:16:52.210Z,11.38
2018-03-25T10:17:52.197Z,11.46
2018-03-25T10:18:52.222Z,11.48
2018-03-25T10:19:52.161Z,11.62
2018-03-25T10:20:52.144Z,11.64
2018-03-25T10:21:52.134Z,11.69
2018-03-25T10:22:52.111Z,11.82
2018-03-25T10:23:52.094Z,11.88
2018-03-25T10:24:52.078Z,11.99
2018-03-25T10:25:52.059Z,12.14
2018-03-25T10:26:52.050Z,12.47
2018-03-25T10:27:52.029Z,12.46
2018-03-25T10:28:52.014Z,12.65
2018-03-25T10:29:52.000Z,12.81
2018-03-25T10:30:51.988Z,12.63
2018-03-25T10:31:51.981Z,12.66
2018-03-25T10:32:52.005Z,12.66
2018-03-25T10:33:51.950Z,12.98
2018-03-25T10:34:51.965Z,12.99
2018-03-25T10:35:51.909Z,13.24
2018-03-25T10:36:51.895Z,13.35
2018-03-25T10:37:51.882Z,13.57
2018-03-25T10:38:51.862Z,13.68
2018-03-25T10:39:51.852Z,13.76
2018-03-25T10:40:51.833Z,13.93
2018-03-25T10:41:51.812Z,14.37
2018-03-25T10:42:51.801Z,14.67
2018-03-25T10:43:51.788Z,14.83
2018-03-25T10:44:51.771Z,15.11
2018-03-25T10:45:51.760Z,15.11
2018-03-25T10:46:51.747Z,15.12
2018-03-25T10:47:51.727Z,14.78
2018-03-25T10:48:51.726Z,14.73
2018-03-25T10:49:51.702Z,14.87
2018-03-25T10:50:51.688Z,14.86
2018-03-25T10:51:51.682Z,14.86
2018-03-25T10:52:51.663Z,15.03
2018-03-25T10:53:51.644Z,15.12
2018-03-25T10:54:51.635Z,15.14
2018-03-25T10:55:51.621Z,15.10
2018-03-25T10:56:51.611Z,14.83
2018-03-25T10:57:51.611Z,14.89
2018-03-25T10:58:51.580Z,14.92
2018-03-25T10:59:51.569Z,14.78
2018-03-25T11:00:51.554Z,14.44
2018-03-25T11:01:51.547Z,14.27
2018-03-25T11:02:51.530Z,14.31
2018-03-25T11:03:51.523Z,14.18
2018-03-25T11:04:51.503Z,14.49
2018-03-25T11:05:51.489Z,14.83
2018-03-25T11:06:51.481Z,14.73
2018-03-25T11:07:51.461Z,14.96
2018-03-25T11:08:51.452Z,15.03
2018-03-25T11:09:51.434Z,15.22
2018-03-25T11:10:51.420Z,15.17
2018-03-25T11:11:51.410Z,15.33
2018-03-25T11:12:51.408Z,15.54
2018-03-25T11:13:51.381Z,15.70
2018-03-25T11:14:51.371Z,15.68
2018-03-25T11:15:51.373Z,15.78
2018-03-25T11:16:51.344Z,15.81
2018-03-25T11:17:51.329Z,15.93
2018-03-25T11:18:51.317Z,16.18
2018-03-25T11:19:51.310Z,16.54
2018-03-25T11:20:51.299Z,16.58
2018-03-25T11:21:51.288Z,16.59
2018-03-25T11:22:51.270Z,16.64
2018-03-25T11:23:51.259Z,16.92
2018-03-25T11:24:51.250Z,16.90
2018-03-25T11:25:51.242Z,17.07
2018-03-25T11:26:51.221Z,16.99
2018-03-25T11:27:51.213Z,17.16
2018-03-25T11:28:51.197Z,17.34
2018-03-25T11:29:51.238Z,17.35
2018-03-25T11:30:51.174Z,17.09
2018-03-25T11:31:51.230Z,16.94
2018-03-25T11:32:51.160Z,16.91
2018-03-25T11:33:51.141Z,17.04
2018-03-25T11:34:51.129Z,16.72
2018-03-25T11:35:51.114Z,16.64
2018-03-25T11:36:51.113Z,16.69
2018-03-25T11:37:51.091Z,17.04
2018-03-25T11:38:51.081Z,17.25
2018-03-25T11:39:51.072Z,17.47
2018-03-25T11:40:51.061Z,17.37
2018-03-25T11:41:51.053Z,17.32
2018-03-25T11:42:51.036Z,17.47
2018-03-25T11:43:51.026Z,17.30
2018-03-25T11:44:51.010Z,17.54
2018-03-25T11:45:51.007Z,17.81
2018-03-25T11:46:50.992Z,18.01
2018-03-25T11:47:50.980Z,17.87
2018-03-25T11:48:50.974Z,17.45
2018-03-25T11:49:50.956Z,17.47
2018-03-25T11:50:50.950Z,17.19
2018-03-25T11:51:50.933Z,17.22
2018-03-25T11:52:50.922Z,17.20
2018-03-25T11:53:50.916Z,17.22
2018-03-25T11:54:50.906Z,17.10
2018-03-25T11:55:50.886Z,17.37
2018-03-25T11:56:50.880Z,17.09
2018-03-25T11:57:50.863Z,16.82
2018-03-25T11:58:50.856Z,16.72
2018-03-25T11:59:50.839Z,16.58
2018-03-25T12:00:50.831Z,16.52
2018-03-25T12:01:50.821Z,16.73
2018-03-25T12:02:50.811Z,16.42
2018-03-25T12:03:50.793Z,16.33
2018-03-25T12:04:50.791Z,16.03
2018-03-25T12:05:50.773Z,16.40
2018-03-25T12:06:50.772Z,16.72
2018-03-25T12:07:50.746Z,16.72
2018-03-25T12:08:50.743Z,16.97
2018-03-25T12:09:50.724Z,17.04
2018-03-25T12:10:50.713Z,17.46
2018-03-25T12:11:50.709Z,17.76
2018-03-25T12:12:50.691Z,18.11
2018-03-25T12:13:50.677Z,18.46
2018-03-25T12:14:50.671Z,18.79
2018-03-25T12:15:50.664Z,19.00
2018-03-25T12:16:50.670Z,19.08
2018-03-25T12:17:50.645Z,18.51
2018-03-25T12:18:50.694Z,17.86
2018-03-25T12:19:50.611Z,18.03
2018-03-25T12:20:50.608Z,17.73
2018-03-25T12:21:50.592Z,17.87
2018-03-25T12:22:50.586Z,17.25
2018-03-25T12:23:50.569Z,17.14
2018-03-25T12:24:50.703Z,16.44
2018-03-25T12:25:50.546Z,16.25
2018-03-25T12:26:50.645Z,16.34
2018-03-25T12:27:50.524Z,16.33
2018-03-25T12:28:50.515Z,16.43
2018-03-25T12:29:50.502Z,16.44
2018-03-25T12:30:50.492Z,16.49
2018-03-25T12:31:50.483Z,16.54
2018-03-25T12:32:50.466Z,16.06
2018-03-25T12:33:50.452Z,15.81
2018-03-25T12:34:50.446Z,15.87
2018-03-25T12:35:50.443Z,16.32
2018-03-25T12:36:50.425Z,16.59
2018-03-25T12:37:50.410Z,16.61
2018-03-25T12:38:50.391Z,16.87
2018-03-25T12:39:50.389Z,16.80
2018-03-25T12:40:50.374Z,16.69
2018-03-25T12:41:50.360Z,16.88
2018-03-25T12:42:50.360Z,16.70
2018-03-25T12:43:50.345Z,16.70
2018-03-25T12:44:50.326Z,16.70
2018-03-25T12:45:50.310Z,16.67
2018-03-25T12:46:50.296Z,16.44
2018-03-25T12:47:50.282Z,16.22
2018-03-25T12:48:50.269Z,15.95
2018-03-25T12:49:50.324Z,15.70
2018-03-25T12:50:50.248Z,15.65
2018-03-25T12:51:50.232Z,15.22
2018-03-25T12:52:50.222Z,15.23
2018-03-25T12:53:50.209Z,15.03
2018-03-25T12:54:50.196Z,14.99
2018-03-25T12:55:50.184Z,14.95
2018-03-25T12:56:50.173Z,15.07
2018-03-25T12:57:50.157Z,15.03
2018-03-25T12:58:50.146Z,15.01
2018-03-25T12:59:50.130Z,14.96
2018-03-25T13:00:50.126Z,14.97
2018-03-25T13:01:50.104Z,15.10
2018-03-25T13:02:50.093Z,15.12
2018-03-25T13:03:50.076Z,15.19
2018-03-25T13:04:50.070Z,15.29
2018-03-25T13:05:50.064Z,15.17
2018-03-25T13:06:50.045Z,14.83
2018-03-25T13:07:50.030Z,14.70
2018-03-25T13:08:50.011Z,14.69
2018-03-25T13:09:49.994Z,14.59